Terminal Aerodrome Forecast
Issued by NWS

Home | Current Version | Previous Version | Text Only | Print | Product List | Glossary On
Versions: 1 2 3 4 5 6 7 8 9 10 11 12
010
FTUS43 KEAX 171738
TAFMKC
TAF
KMKC 171738Z 1718/1818 19014KT P6SM SKC
     FM172300 18008KT P6SM SKC
     FM181600 19010G20KT P6SM SKC=

USA.gov is the U.S. government's official web portal to all federal, state and local government web resources and services.